createdAt,value
2019-03-24T00:01:45.372Z,6.21
2019-03-24T00:04:14.855Z,6.14
2019-03-24T00:06:44.350Z,6.09
2019-03-24T00:09:13.864Z,6.03
2019-03-24T00:11:43.295Z,5.97
2019-03-24T00:14:12.760Z,5.93
2019-03-24T00:16:42.227Z,5.90
2019-03-24T00:19:11.697Z,5.83
2019-03-24T00:21:41.312Z,5.78
2019-03-24T00:24:10.936Z,5.74
2019-03-24T00:26:40.424Z,5.70
2019-03-24T00:29:11.000Z,5.66
2019-03-24T00:31:40.868Z,5.63
2019-03-24T00:34:10.572Z,5.59
2019-03-24T00:36:40.018Z,5.56
2019-03-24T00:39:09.589Z,5.52
2019-03-24T00:41:39.114Z,5.49
2019-03-24T00:44:08.608Z,5.46
2019-03-24T00:46:38.127Z,5.44
2019-03-24T00:49:07.855Z,5.43
2019-03-24T00:51:37.355Z,5.40
2019-03-24T00:54:07.109Z,5.38
2019-03-24T00:56:37.059Z,5.36
2019-03-24T00:59:06.546Z,5.34
2019-03-24T01:01:36.071Z,5.31
2019-03-24T01:04:05.782Z,5.28
2019-03-24T01:06:35.429Z,5.24
2019-03-24T01:09:07.662Z,5.20
2019-03-24T01:11:37.292Z,5.18
2019-03-24T01:14:07.057Z,5.16
2019-03-24T01:16:36.684Z,5.13
2019-03-24T01:19:06.335Z,5.09
2019-03-24T01:21:36.074Z,5.07
2019-03-24T01:24:07.157Z,5.03
2019-03-24T01:26:36.725Z,5.02
2019-03-24T01:29:06.320Z,5.01
2019-03-24T01:31:35.940Z,5.00
2019-03-24T01:34:05.580Z,4.98
2019-03-24T01:36:35.149Z,4.96
2019-03-24T01:39:10.103Z,4.96
2019-03-24T01:41:39.573Z,4.95
2019-03-24T01:44:09.157Z,4.93
2019-03-24T01:46:38.599Z,4.90
2019-03-24T01:49:08.712Z,4.88
2019-03-24T01:51:38.252Z,4.88
2019-03-24T01:54:08.316Z,4.87
2019-03-24T01:56:37.985Z,4.86
2019-03-24T01:59:07.731Z,4.84
2019-03-24T02:01:37.459Z,4.82
2019-03-24T02:04:06.893Z,4.83
2019-03-24T02:06:38.569Z,4.84
2019-03-24T02:09:08.420Z,4.83
2019-03-24T02:11:38.159Z,4.83
2019-03-24T02:14:07.961Z,4.83
2019-03-24T02:16:37.767Z,4.83
2019-03-24T02:19:07.235Z,4.82
2019-03-24T02:21:36.699Z,4.81
2019-03-24T02:24:06.244Z,4.79
2019-03-24T02:26:35.903Z,4.78
2019-03-24T02:29:06.457Z,4.75
2019-03-24T02:31:36.006Z,4.74
2019-03-24T02:34:05.493Z,4.73
2019-03-24T02:36:35.046Z,4.73
2019-03-24T02:39:09.655Z,4.71
2019-03-24T02:41:39.130Z,4.68
2019-03-24T02:44:08.632Z,4.66
2019-03-24T02:46:38.291Z,4.66
2019-03-24T02:49:07.946Z,4.65
2019-03-24T02:51:38.434Z,4.64
2019-03-24T02:54:08.042Z,4.65
2019-03-24T02:56:37.587Z,4.64
2019-03-24T02:59:07.372Z,4.62
2019-03-24T03:01:37.037Z,4.61
2019-03-24T03:04:06.628Z,4.59
2019-03-24T03:06:36.172Z,4.57
2019-03-24T03:09:06.454Z,4.54
2019-03-24T03:11:37.093Z,4.53
2019-03-24T03:14:06.756Z,4.52
2019-03-24T03:16:38.904Z,4.49
2019-03-24T03:19:07.698Z,4.47
2019-03-24T03:21:38.421Z,4.44
2019-03-24T03:24:08.213Z,4.42
2019-03-24T03:26:37.712Z,4.41
2019-03-24T03:29:07.331Z,4.39
2019-03-24T03:31:36.772Z,4.36
2019-03-24T03:34:06.329Z,4.33
2019-03-24T03:36:36.060Z,4.30
2019-03-24T03:39:07.594Z,4.24
2019-03-24T03:41:37.294Z,4.20
2019-03-24T03:44:06.948Z,4.17
2019-03-24T03:46:36.543Z,4.16
2019-03-24T03:49:05.987Z,4.10
2019-03-24T03:51:35.463Z,4.06
2019-03-24T03:54:05.039Z,4.03
2019-03-24T03:56:34.536Z,4.04
2019-03-24T03:59:04.436Z,4.03
2019-03-24T04:01:35.131Z,3.99
2019-03-24T04:04:04.819Z,3.95
2019-03-24T04:06:35.567Z,3.89
2019-03-24T04:09:06.485Z,3.85
2019-03-24T04:11:36.060Z,3.80
2019-03-24T04:14:05.573Z,3.75
2019-03-24T04:16:35.057Z,3.71
2019-03-24T04:19:04.600Z,3.67
2019-03-24T04:21:34.155Z,3.65
2019-03-24T04:24:04.582Z,3.61
2019-03-24T04:26:34.115Z,3.58
2019-03-24T04:29:04.344Z,3.58
2019-03-24T04:31:33.956Z,3.56
2019-03-24T04:34:04.490Z,3.54
2019-03-24T04:36:34.010Z,3.54
2019-03-24T04:39:06.415Z,3.53
2019-03-24T04:41:35.865Z,3.54
2019-03-24T04:44:05.343Z,3.54
2019-03-24T04:46:34.823Z,3.54
2019-03-24T04:49:04.433Z,3.52
2019-03-24T04:51:34.079Z,3.52
2019-03-24T04:54:04.676Z,3.48
2019-03-24T04:56:34.146Z,3.46
2019-03-24T04:59:04.427Z,3.47
2019-03-24T05:01:33.894Z,3.46
2019-03-24T05:04:04.425Z,3.44
2019-03-24T05:06:34.042Z,3.43
2019-03-24T05:09:05.424Z,3.38
2019-03-24T05:11:34.870Z,3.37
2019-03-24T05:14:04.563Z,3.38
2019-03-24T05:16:34.081Z,3.38
2019-03-24T05:19:04.450Z,3.39
2019-03-24T05:21:33.955Z,3.43
2019-03-24T05:24:03.405Z,3.48
2019-03-24T05:26:32.843Z,3.52
2019-03-24T05:29:02.333Z,3.57
2019-03-24T05:31:31.774Z,3.63
2019-03-24T05:34:02.589Z,3.70
2019-03-24T05:36:32.058Z,3.77
2019-03-24T05:39:01.536Z,3.81
2019-03-24T05:41:31.788Z,3.84
2019-03-24T05:44:01.227Z,3.87
2019-03-24T05:46:30.711Z,3.93
2019-03-24T05:49:00.187Z,3.93
2019-03-24T05:51:29.706Z,4.02
2019-03-24T05:53:59.200Z,4.07
2019-03-24T05:56:28.797Z,4.10
2019-03-24T05:58:59.413Z,4.04
2019-03-24T06:01:28.967Z,4.03
2019-03-24T06:03:58.426Z,4.06
2019-03-24T06:06:27.896Z,4.12
2019-03-24T06:08:57.339Z,4.21
2019-03-24T06:11:26.824Z,4.21
2019-03-24T06:13:56.290Z,4.25
2019-03-24T06:16:25.749Z,4.25
2019-03-24T06:18:55.257Z,4.21
2019-03-24T06:21:24.820Z,4.22
2019-03-24T06:23:54.367Z,4.28
2019-03-24T06:26:24.812Z,4.30
2019-03-24T06:28:54.276Z,4.34
2019-03-24T06:31:23.768Z,4.43
2019-03-24T06:33:53.264Z,4.47
2019-03-24T06:36:22.730Z,4.48
2019-03-24T06:38:52.210Z,4.54
2019-03-24T06:41:21.671Z,4.62
2019-03-24T06:43:51.205Z,4.69
2019-03-24T06:46:20.748Z,4.76
2019-03-24T06:48:51.289Z,4.79
2019-03-24T06:51:20.734Z,4.81
2019-03-24T06:53:50.219Z,4.88
2019-03-24T06:56:19.653Z,5.00
2019-03-24T06:58:49.147Z,5.10
2019-03-24T07:01:18.707Z,5.20
2019-03-24T07:03:48.321Z,5.24
2019-03-24T07:06:17.882Z,5.31
2019-03-24T07:08:47.560Z,5.41
2019-03-24T07:11:16.999Z,5.47
2019-03-24T07:13:46.469Z,5.44
2019-03-24T07:16:15.943Z,5.36
2019-03-24T07:18:47.722Z,5.35
2019-03-24T07:21:17.203Z,5.37
2019-03-24T07:23:46.690Z,5.42
2019-03-24T07:26:16.168Z,5.44
2019-03-24T07:28:45.600Z,5.42
2019-03-24T07:31:15.073Z,5.34
2019-03-24T07:33:44.579Z,5.30
2019-03-24T07:36:14.057Z,5.33
2019-03-24T07:38:43.568Z,5.50
2019-03-24T07:41:13.147Z,5.63
2019-03-24T07:43:42.869Z,5.81
2019-03-24T07:46:12.389Z,5.95
2019-03-24T07:48:41.958Z,6.08
2019-03-24T07:51:11.769Z,6.22
2019-03-24T07:53:41.224Z,6.39
2019-03-24T07:56:10.799Z,6.43
2019-03-24T07:58:40.245Z,6.38
2019-03-24T08:01:09.760Z,6.40
2019-03-24T08:03:39.345Z,6.42
2019-03-24T08:06:08.799Z,6.38
2019-03-24T08:08:44.154Z,6.38
2019-03-24T08:11:09.490Z,6.41
2019-03-24T08:13:39.026Z,6.39
2019-03-24T08:16:08.566Z,6.33
2019-03-24T08:18:38.502Z,6.31
2019-03-24T08:21:07.974Z,6.34
2019-03-24T08:23:37.427Z,6.41
2019-03-24T08:26:07.137Z,6.48
2019-03-24T08:28:36.614Z,6.56
2019-03-24T08:31:06.068Z,6.70
2019-03-24T08:33:35.576Z,6.81
2019-03-24T08:36:05.121Z,6.91
2019-03-24T08:38:34.559Z,6.95
2019-03-24T08:41:05.365Z,7.00
2019-03-24T08:43:34.788Z,6.96
2019-03-24T08:46:04.638Z,6.98
2019-03-24T08:48:40.875Z,6.98
2019-03-24T08:51:05.289Z,7.04
2019-03-24T08:53:34.769Z,7.15
2019-03-24T08:56:04.717Z,7.30
2019-03-24T08:58:34.453Z,7.49
2019-03-24T09:01:04.927Z,7.80
2019-03-24T09:03:34.536Z,8.09
2019-03-24T09:06:05.948Z,8.23
2019-03-24T09:08:35.590Z,8.46
2019-03-24T09:11:05.145Z,8.52
2019-03-24T09:13:34.691Z,8.51
2019-03-24T09:16:04.574Z,8.48
2019-03-24T09:18:34.076Z,8.46
2019-03-24T09:21:04.435Z,8.54
2019-03-24T09:23:33.954Z,8.48
2019-03-24T09:26:04.466Z,8.41
2019-03-24T09:28:33.916Z,8.42
2019-03-24T09:31:04.402Z,8.53
2019-03-24T09:33:33.917Z,8.68
2019-03-24T09:36:04.494Z,8.70
2019-03-24T09:38:34.942Z,8.63
2019-03-24T09:41:05.281Z,8.69
2019-03-24T09:43:35.191Z,8.71
2019-03-24T09:46:04.742Z,8.69
2019-03-24T09:48:34.327Z,8.73
2019-03-24T09:51:04.550Z,8.78
2019-03-24T09:53:34.105Z,8.90
2019-03-24T09:56:04.561Z,9.06
2019-03-24T09:58:34.105Z,9.21
2019-03-24T10:01:04.388Z,9.34
2019-03-24T10:03:33.852Z,9.41
2019-03-24T10:06:03.375Z,9.47
2019-03-24T10:08:32.912Z,9.54
2019-03-24T10:11:02.470Z,9.58
2019-03-24T10:13:31.935Z,9.61
2019-03-24T10:16:01.697Z,9.79
2019-03-24T10:18:31.380Z,9.92
2019-03-24T10:21:01.009Z,9.91
2019-03-24T10:23:30.491Z,9.90
2019-03-24T10:25:59.937Z,10.02
2019-03-24T10:28:29.410Z,10.20
2019-03-24T10:30:59.038Z,10.32
2019-03-24T10:33:28.538Z,10.47
2019-03-24T10:35:58.004Z,10.56
2019-03-24T10:38:27.516Z,10.58
2019-03-24T10:40:56.952Z,10.63
2019-03-24T10:43:26.491Z,10.54
2019-03-24T10:45:58.955Z,10.42
2019-03-24T10:48:33.687Z,10.58
2019-03-24T10:50:59.621Z,10.76
2019-03-24T10:53:29.146Z,11.02
2019-03-24T10:56:07.684Z,11.36
2019-03-24T10:58:37.889Z,11.77
2019-03-24T11:01:07.291Z,12.21
2019-03-24T11:03:37.539Z,12.46
2019-03-24T11:06:10.029Z,12.58
2019-03-24T11:08:39.694Z,12.70
2019-03-24T11:11:09.200Z,12.81
2019-03-24T11:13:38.680Z,13.03
2019-03-24T11:16:08.173Z,13.37
2019-03-24T11:18:37.805Z,13.22
2019-03-24T11:21:08.909Z,13.13
2019-03-24T11:23:38.603Z,13.27
2019-03-24T11:26:11.781Z,13.40
2019-03-24T11:28:43.648Z,13.61
2019-03-24T11:31:13.076Z,13.83
2019-03-24T11:33:42.768Z,13.92
2019-03-24T11:36:12.250Z,13.87
2019-03-24T11:38:41.785Z,13.45
2019-03-24T11:41:11.268Z,13.40
2019-03-24T11:43:40.729Z,13.42
2019-03-24T11:46:10.296Z,13.67
2019-03-24T11:48:39.843Z,13.90
2019-03-24T11:51:09.462Z,13.99
2019-03-24T11:53:40.079Z,14.16
2019-03-24T11:56:09.772Z,14.25
2019-03-24T11:58:39.403Z,13.98
2019-03-24T12:01:10.507Z,13.71
2019-03-24T12:03:40.374Z,13.40
2019-03-24T12:06:14.512Z,13.42
2019-03-24T12:08:42.215Z,13.41
2019-03-24T12:11:11.657Z,13.48
2019-03-24T12:13:41.131Z,13.72
2019-03-24T12:16:10.649Z,13.85
2019-03-24T12:18:40.455Z,13.72
2019-03-24T12:21:09.907Z,13.56
2019-03-24T12:23:40.148Z,13.51
2019-03-24T12:26:09.618Z,13.45
2019-03-24T12:28:39.092Z,13.33
2019-03-24T12:31:08.522Z,13.43
2019-03-24T12:33:38.000Z,13.50
2019-03-24T12:36:07.500Z,13.36
2019-03-24T12:38:37.172Z,13.47
2019-03-24T12:41:07.030Z,13.51
2019-03-24T12:43:36.491Z,13.36
2019-03-24T12:46:06.328Z,13.25
2019-03-24T12:48:36.106Z,13.19
2019-03-24T12:51:05.745Z,13.03
2019-03-24T12:53:35.377Z,13.05
2019-03-24T12:56:16.312Z,12.91
2019-03-24T12:58:40.977Z,12.79
2019-03-24T13:01:13.891Z,13.00
2019-03-24T13:03:43.411Z,13.09
2019-03-24T13:06:12.819Z,13.20
2019-03-24T13:08:42.448Z,13.17
2019-03-24T13:11:11.884Z,13.24
2019-03-24T13:13:41.565Z,13.29
2019-03-24T13:16:11.068Z,12.93
2019-03-24T13:18:41.853Z,12.82
2019-03-24T13:21:11.353Z,12.92
2019-03-24T13:23:40.920Z,12.68
2019-03-24T13:26:10.436Z,12.40
2019-03-24T13:28:40.061Z,12.38
2019-03-24T13:31:09.529Z,12.51
2019-03-24T13:33:39.007Z,12.57
2019-03-24T13:36:10.629Z,12.48
2019-03-24T13:38:40.183Z,12.26
2019-03-24T13:41:09.717Z,12.11
2019-03-24T13:43:39.308Z,12.06
2019-03-24T13:46:08.886Z,12.03
2019-03-24T13:48:38.375Z,12.04
2019-03-24T13:51:07.949Z,12.03
2019-03-24T13:53:37.409Z,12.12
2019-03-24T13:56:08.968Z,12.31
2019-03-24T13:58:38.504Z,12.30
2019-03-24T14:01:09.648Z,12.17
2019-03-24T14:03:39.449Z,12.11
2019-03-24T14:06:08.915Z,12.01
2019-03-24T14:08:38.358Z,11.90
2019-03-24T14:11:07.948Z,11.72
2019-03-24T14:13:37.481Z,11.64
2019-03-24T14:16:07.099Z,11.61
2019-03-24T14:18:36.539Z,11.74
2019-03-24T14:21:06.225Z,11.93
2019-03-24T14:23:36.077Z,11.99
2019-03-24T14:26:05.655Z,11.93
2019-03-24T14:28:35.157Z,11.92
2019-03-24T14:31:04.835Z,11.89
2019-03-24T14:33:34.296Z,11.70
2019-03-24T14:36:04.388Z,11.72
2019-03-24T14:38:33.906Z,11.64
2019-03-24T14:41:05.017Z,11.64
2019-03-24T14:43:34.481Z,11.55
2019-03-24T14:46:04.563Z,11.39
2019-03-24T14:48:36.222Z,11.24
2019-03-24T14:51:06.647Z,11.17
2019-03-24T14:53:36.402Z,11.19
2019-03-24T14:56:05.960Z,11.17
2019-03-24T14:58:35.545Z,11.13
2019-03-24T15:01:05.223Z,11.06
2019-03-24T15:03:34.808Z,11.03
2019-03-24T15:06:05.180Z,10.90
2019-03-24T15:08:35.662Z,10.69
2019-03-24T15:11:07.120Z,10.59
2019-03-24T15:13:36.784Z,10.54
2019-03-24T15:16:06.300Z,10.55
2019-03-24T15:18:36.006Z,10.57
2019-03-24T15:21:06.208Z,10.56
2019-03-24T15:23:35.730Z,10.51
2019-03-24T15:26:05.299Z,10.50
2019-03-24T15:28:34.744Z,10.53
2019-03-24T15:31:04.582Z,10.53
2019-03-24T15:33:34.098Z,10.54
2019-03-24T15:36:04.746Z,10.55
2019-03-24T15:38:35.181Z,10.53
2019-03-24T15:41:04.770Z,10.42
2019-03-24T15:43:34.228Z,10.34
2019-03-24T15:46:04.391Z,10.34
2019-03-24T15:48:35.407Z,10.32
2019-03-24T15:51:16.053Z,10.30
2019-03-24T15:53:36.081Z,10.30
2019-03-24T15:56:05.536Z,10.27
2019-03-24T15:58:35.261Z,10.25
2019-03-24T16:01:04.929Z,10.23
2019-03-24T16:03:34.351Z,10.22
2019-03-24T16:06:04.447Z,10.24
2019-03-24T16:08:34.856Z,10.24
2019-03-24T16:11:04.450Z,10.21
2019-03-24T16:13:33.926Z,10.19
2019-03-24T16:16:03.446Z,10.16
2019-03-24T16:18:34.062Z,10.12
2019-03-24T16:21:04.494Z,10.11
2019-03-24T16:23:42.291Z,10.10
2019-03-24T16:26:11.777Z,10.09
2019-03-24T16:28:41.213Z,10.09
2019-03-24T16:31:12.386Z,10.07
2019-03-24T16:33:41.926Z,10.07
2019-03-24T16:36:11.382Z,10.07
2019-03-24T16:38:48.757Z,10.08
2019-03-24T16:41:13.592Z,10.05
2019-03-24T16:43:44.142Z,9.99
2019-03-24T16:46:13.609Z,9.93
2019-03-24T16:48:43.095Z,9.87
2019-03-24T16:51:12.761Z,9.82
2019-03-24T16:53:42.494Z,9.76
2019-03-24T16:56:12.100Z,9.70
2019-03-24T16:58:41.625Z,9.64
2019-03-24T17:01:11.148Z,9.60
2019-03-24T17:03:40.687Z,9.56
2019-03-24T17:06:11.740Z,9.50
2019-03-24T17:08:41.319Z,9.46
2019-03-24T17:11:10.771Z,9.41
2019-03-24T17:13:40.395Z,9.38
2019-03-24T17:16:10.012Z,9.31
2019-03-24T17:18:39.643Z,9.26
2019-03-24T17:21:10.343Z,9.20
2019-03-24T17:23:41.515Z,9.16
2019-03-24T17:26:11.138Z,9.12
2019-03-24T17:28:40.594Z,9.08
2019-03-24T17:31:10.026Z,9.02
2019-03-24T17:33:39.617Z,8.95
2019-03-24T17:36:09.228Z,8.88
2019-03-24T17:38:38.866Z,8.81
2019-03-24T17:41:08.819Z,8.74
2019-03-24T17:43:38.324Z,8.63
2019-03-24T17:46:08.132Z,8.61
2019-03-24T17:48:37.567Z,8.53
2019-03-24T17:51:07.106Z,8.48
2019-03-24T17:53:36.613Z,8.43
2019-03-24T17:56:06.212Z,8.36
2019-03-24T17:58:35.700Z,8.31
2019-03-24T18:01:05.366Z,8.23
2019-03-24T18:03:34.911Z,8.18
2019-03-24T18:06:04.602Z,8.14
2019-03-24T18:08:54.181Z,8.12
2019-03-24T18:15:37.495Z,8.01
2019-03-24T18:18:17.639Z,7.93
2019-03-24T18:20:47.492Z,7.86
2019-03-24T18:23:17.326Z,7.82
2019-03-24T18:25:47.124Z,7.77
2019-03-24T18:28:21.945Z,7.72
2019-03-24T18:30:51.986Z,7.69
2019-03-24T18:33:21.894Z,7.64
2019-03-24T18:35:51.801Z,7.59
2019-03-24T18:38:21.400Z,7.56
2019-03-24T18:40:50.915Z,7.54
2019-03-24T18:43:21.546Z,7.50
2019-03-24T18:45:51.083Z,7.50
2019-03-24T18:48:20.670Z,7.52
2019-03-24T18:50:51.793Z,7.49
2019-03-24T18:53:21.246Z,7.46
2019-03-24T18:55:50.691Z,7.47
2019-03-24T18:58:20.174Z,7.44
2019-03-24T19:00:50.504Z,7.44
2019-03-24T19:03:19.994Z,7.38
2019-03-24T19:05:49.423Z,7.32
2019-03-24T19:08:18.937Z,7.28
2019-03-24T19:10:48.375Z,7.23
2019-03-24T19:13:18.875Z,7.18
2019-03-24T19:15:48.370Z,7.12
2019-03-24T19:18:17.870Z,7.06
2019-03-24T19:20:47.336Z,7.03
2019-03-24T19:23:18.509Z,6.95
2019-03-24T19:25:48.276Z,6.89
2019-03-24T19:28:24.713Z,6.85
2019-03-24T19:30:54.174Z,6.80
2019-03-24T19:33:23.810Z,6.76
2019-03-24T19:35:53.502Z,6.71
2019-03-24T19:38:24.508Z,6.69
2019-03-24T19:40:54.212Z,6.66
2019-03-24T19:43:23.962Z,6.61
2019-03-24T19:45:53.432Z,6.58
2019-03-24T19:48:23.127Z,6.54
2019-03-24T19:50:52.896Z,6.51
2019-03-24T19:53:23.363Z,6.50
2019-03-24T19:55:53.111Z,6.46
2019-03-24T19:58:22.783Z,6.44
2019-03-24T20:00:53.388Z,6.42
2019-03-24T20:03:22.917Z,6.41
2019-03-24T20:05:52.711Z,6.38
2019-03-24T20:08:22.565Z,6.37
2019-03-24T20:10:56.075Z,6.35
2019-03-24T20:13:30.340Z,6.32
2019-03-24T20:16:03.191Z,6.30
2019-03-24T20:18:35.064Z,6.29
2019-03-24T20:21:06.703Z,6.29
2019-03-24T20:23:42.575Z,6.31
2019-03-24T20:26:12.668Z,6.31
2019-03-24T20:28:43.158Z,6.32
2019-03-24T20:31:12.965Z,6.35
2019-03-24T20:33:43.581Z,6.35
2019-03-24T20:36:14.152Z,6.44
2019-03-24T20:38:43.885Z,6.51
2019-03-24T20:41:14.731Z,6.59
2019-03-24T20:43:44.202Z,6.66
2019-03-24T20:46:13.929Z,6.72
2019-03-24T20:48:43.466Z,6.77
2019-03-24T20:51:13.586Z,6.81
2019-03-24T20:53:43.175Z,6.82
2019-03-24T20:56:13.150Z,6.83
2019-03-24T20:58:43.092Z,6.87
2019-03-24T21:01:13.130Z,6.95
2019-03-24T21:03:43.225Z,7.03
2019-03-24T21:06:12.966Z,7.11
2019-03-24T21:08:42.622Z,7.17
2019-03-24T21:11:12.923Z,7.25
2019-03-24T21:13:45.188Z,7.32
2019-03-24T21:16:14.169Z,7.38
2019-03-24T21:18:44.870Z,7.46
2019-03-24T21:21:14.322Z,7.50
2019-03-24T21:23:44.595Z,7.54
2019-03-24T21:26:14.286Z,7.56
2019-03-24T21:28:43.881Z,7.60
2019-03-24T21:31:13.385Z,7.62
2019-03-24T21:33:43.034Z,7.66
2019-03-24T21:36:12.765Z,7.70
2019-03-24T21:38:42.544Z,7.73
2019-03-24T21:41:12.016Z,7.76
2019-03-24T21:43:41.755Z,7.74
2019-03-24T21:46:11.377Z,7.73
2019-03-24T21:48:40.860Z,7.76
2019-03-24T21:51:10.464Z,7.79
2019-03-24T21:53:41.062Z,7.80
2019-03-24T21:56:10.726Z,7.83
2019-03-24T21:58:40.208Z,7.87
2019-03-24T22:01:09.811Z,7.86
2019-03-24T22:03:40.928Z,7.86
2019-03-24T22:06:10.380Z,7.85
2019-03-24T22:08:39.973Z,7.78
2019-03-24T22:11:12.289Z,7.70
2019-03-24T22:13:41.941Z,7.64
2019-03-24T22:16:11.463Z,7.58
2019-03-24T22:18:40.939Z,7.51
2019-03-24T22:21:10.446Z,7.42
2019-03-24T22:23:40.025Z,7.36
2019-03-24T22:26:09.471Z,7.36
2019-03-24T22:28:40.226Z,7.40
2019-03-24T22:31:12.987Z,7.44
2019-03-24T22:33:42.595Z,7.44
2019-03-24T22:36:12.354Z,7.42
2019-03-24T22:38:42.348Z,7.44
2019-03-24T22:41:12.156Z,7.45
2019-03-24T22:43:41.633Z,7.46
2019-03-24T22:46:11.082Z,7.47
2019-03-24T22:48:40.564Z,7.47
2019-03-24T22:51:10.323Z,7.49
2019-03-24T22:53:39.964Z,7.50
2019-03-24T22:56:09.725Z,7.53
2019-03-24T22:58:39.325Z,7.50
2019-03-24T23:01:09.298Z,7.42
2019-03-24T23:03:40.699Z,7.34
2019-03-24T23:06:11.404Z,7.23
2019-03-24T23:08:40.875Z,7.14
2019-03-24T23:11:10.507Z,7.08
2019-03-24T23:13:40.169Z,7.05
2019-03-24T23:16:10.622Z,7.03
2019-03-24T23:18:40.156Z,6.99
2019-03-24T23:21:09.713Z,6.97
2019-03-24T23:23:39.261Z,6.98
2019-03-24T23:26:08.711Z,6.94
2019-03-24T23:28:38.248Z,6.93
2019-03-24T23:31:07.799Z,6.95
2019-03-24T23:33:37.278Z,6.94
2019-03-24T23:36:07.118Z,6.95
2019-03-24T23:38:36.900Z,6.91
2019-03-24T23:41:06.631Z,6.81
2019-03-24T23:43:36.344Z,6.74
2019-03-24T23:46:05.916Z,6.67
2019-03-24T23:48:35.415Z,6.63
2019-03-24T23:51:04.973Z,6.59
2019-03-24T23:53:34.430Z,6.54
2019-03-24T23:56:04.615Z,6.51
2019-03-24T23:58:40.699Z,6.50
